DABB/AAE METAR and TAF weather

Enter ICAO airport designator
Station Type Date Time Source
DABB METAR 2020/04/05 18:30 UTC NOAA

DABB 051830Z 08010KT 9999 FEW026 SCT200 13/10 Q1018


Station Type Date Time Source
DABB Decoded METAR 2020/04/05 18:30 UTC NOAA

Annaba, Algeria (DABB) 36-50N 007-49E 4M
Apr 05, 2020 - 02:30 PM EDT / 2020.04.05 1830 UTC
Wind: from the E (080 degrees) at 12 MPH (10 KT):0
Visibility: greater than 7 mile(s):0
Sky conditions: partly cloudy
Temperature: 55 F (13 C)
Dew Point: 50 F (10 C)
Relative Humidity: 81%
Pressure (altimeter): 30.06 in. Hg (1018 hPa)
ob: DABB 051830Z 08010KT 9999 FEW026 SCT200 13/10 Q1018
cycle: 18

Station Type Date Time Source
DABB TAF 2020/04/05 18:33 UTC NOAA

TAF DABB 051700Z 0518/0618 04010KT 9999 FEW026
BECMG 0520/0522 08008KT PROB40
TEMPO 0600/0608 2000 BR BKN010 PROB30
TEMPO 0603/0607 0200 FG
BECMG 0610/0612 06008KT PROB40
TEMPO 0612/0612 FEW026TCU

Example: see airport list